sensor_id;sensor_type;location;lat;lon;timestamp;temperature;humidity
11569;DHT22;5840;46.894;15.542;2024-01-15T00:01:00;-3.80;99.90
11569;DHT22;5840;46.894;15.542;2024-01-15T00:03:26;-3.80;99.90
11569;DHT22;5840;46.894;15.542;2024-01-15T00:05:52;-3.80;99.90
11569;DHT22;5840;46.894;15.542;2024-01-15T00:08:18;-3.80;99.90
11569;DHT22;5840;46.894;15.542;2024-01-15T00:10:44;-3.80;99.90
11569;DHT22;5840;46.894;15.542;2024-01-15T00:13:11;-3.90;99.90
11569;DHT22;5840;46.894;15.542;2024-01-15T00:15:38;-3.90;99.90
11569;DHT22;5840;46.894;15.542;2024-01-15T00:25:33;-3.90;99.90
11569;DHT22;5840;46.894;15.542;2024-01-15T00:27:59;-3.90;99.90
11569;DHT22;5840;46.894;15.542;2024-01-15T00:30:25;-3.90;99.90
11569;DHT22;5840;46.894;15.542;2024-01-15T00:32:52;-3.90;99.90
11569;DHT22;5840;46.894;15.542;2024-01-15T00:35:18;-3.90;99.90
11569;DHT22;5840;46.894;15.542;2024-01-15T00:37:44;-3.90;99.90
11569;DHT22;5840;46.894;15.542;2024-01-15T00:40:10;-3.90;99.90
11569;DHT22;5840;46.894;15.542;2024-01-15T00:42:37;-3.90;99.90
11569;DHT22;5840;46.894;15.542;2024-01-15T00:50:07;-4.00;99.90
11569;DHT22;5840;46.894;15.542;2024-01-15T00:52:34;-4.00;99.90
11569;DHT22;5840;46.894;15.542;2024-01-15T00:55:00;-4.00;99.90
11569;DHT22;5840;46.894;15.542;2024-01-15T00:57:26;-4.00;99.90
11569;DHT22;5840;46.894;15.542;2024-01-15T00:59:52;-4.00;99.90
11569;DHT22;5840;46.894;15.542;2024-01-15T01:02:19;-4.00;99.90
11569;DHT22;5840;46.894;15.542;2024-01-15T01:04:45;-4.00;99.90
11569;DHT22;5840;46.894;15.542;2024-01-15T01:07:12;-4.00;99.90
11569;DHT22;5840;46.894;15.542;2024-01-15T01:17:07;-4.00;99.90
11569;DHT22;5840;46.894;15.542;2024-01-15T01:19:33;-4.00;99.90
11569;DHT22;5840;46.894;15.542;2024-01-15T01:21:59;-4.00;99.90
11569;DHT22;5840;46.894;15.542;2024-01-15T01:24:25;-4.00;99.90
11569;DHT22;5840;46.894;15.542;2024-01-15T01:26:51;-4.00;99.90
11569;DHT22;5840;46.894;15.542;2024-01-15T01:29:18;-4.00;99.90
11569;DHT22;5840;46.894;15.542;2024-01-15T01:31:44;-4.00;99.90
11569;DHT22;5840;46.894;15.542;2024-01-15T01:34:13;-4.00;99.90
11569;DHT22;5840;46.894;15.542;2024-01-15T01:44:04;-4.10;99.90
11569;DHT22;5840;46.894;15.542;2024-01-15T01:46:30;-4.20;99.90
11569;DHT22;5840;46.894;15.542;2024-01-15T01:48:57;-4.20;99.90
11569;DHT22;5840;46.894;15.542;2024-01-15T01:51:27;-4.10;99.90
11569;DHT22;5840;46.894;15.542;2024-01-15T01:53:53;-4.10;99.90
11569;DHT22;5840;46.894;15.542;2024-01-15T01:56:19;-4.20;99.90
11569;DHT22;5840;46.894;15.542;2024-01-15T01:58:47;-4.10;99.90
11569;DHT22;5840;46.894;15.542;2024-01-15T02:01:15;-4.10;99.90
11569;DHT22;5840;46.894;15.542;2024-01-15T02:08:45;-4.10;99.90
11569;DHT22;5840;46.894;15.542;2024-01-15T02:11:12;-4.10;99.90
11569;DHT22;5840;46.894;15.542;2024-01-15T02:13:39;-4.10;99.90
11569;DHT22;5840;46.894;15.542;2024-01-15T02:16:05;-4.20;99.90
11569;DHT22;5840;46.894;15.542;2024-01-15T02:18:40;-4.20;99.90
11569;DHT22;5840;46.894;15.542;2024-01-15T02:21:06;-4.30;99.90
11569;DHT22;5840;46.894;15.542;2024-01-15T02:23:33;-4.40;99.90
11569;DHT22;5840;46.894;15.542;2024-01-15T02:25:59;-4.40;99.90
11569;DHT22;5840;46.894;15.542;2024-01-15T02:33:29;-4.50;99.90
11569;DHT22;5840;46.894;15.542;2024-01-15T02:35:55;-4.50;99.90
11569;DHT22;5840;46.894;15.542;2024-01-15T02:38:22;-4.60;99.90
11569;DHT22;5840;46.894;15.542;2024-01-15T02:40:49;-4.50;99.90
11569;DHT22;5840;46.894;15.542;2024-01-15T02:43:16;-4.50;99.90
11569;DHT22;5840;46.894;15.542;2024-01-15T02:45:44;-4.40;99.90
11569;DHT22;5840;46.894;15.542;2024-01-15T02:48:10;-4.40;99.90
11569;DHT22;5840;46.894;15.542;2024-01-15T02:50:37;-4.40;99.90
11569;DHT22;5840;46.894;15.542;2024-01-15T03:00:32;-4.30;99.90
11569;DHT22;5840;46.894;15.542;2024-01-15T03:02:58;-4.30;99.90
11569;DHT22;5840;46.894;15.542;2024-01-15T03:05:25;-4.30;99.90
11569;DHT22;5840;46.894;15.542;2024-01-15T03:07:51;-4.30;99.90
11569;DHT22;5840;46.894;15.542;2024-01-15T03:10:17;-4.30;99.90
11569;DHT22;5840;46.894;15.542;2024-01-15T03:12:43;-4.30;99.90
11569;DHT22;5840;46.894;15.542;2024-01-15T03:15:10;-4.30;99.90
11569;DHT22;5840;46.894;15.542;2024-01-15T03:17:37;-4.40;99.90
11569;DHT22;5840;46.894;15.542;2024-01-15T03:27:32;-4.40;99.90
11569;DHT22;5840;46.894;15.542;2024-01-15T03:29:58;-4.40;99.90
11569;DHT22;5840;46.894;15.542;2024-01-15T03:32:24;-4.40;99.90
11569;DHT22;5840;46.894;15.542;2024-01-15T03:34:51;-4.40;99.90
11569;DHT22;5840;46.894;15.542;2024-01-15T03:37:18;-4.50;99.90
11569;DHT22;5840;46.894;15.542;2024-01-15T03:39:45;-4.50;99.90
11569;DHT22;5840;46.894;15.542;2024-01-15T03:42:11;-4.50;99.90
11569;DHT22;5840;46.894;15.542;2024-01-15T03:44:38;-4.50;99.90
11569;DHT22;5840;46.894;15.542;2024-01-15T03:52:08;-4.60;99.90
11569;DHT22;5840;46.894;15.542;2024-01-15T03:54:34;-4.60;99.90
11569;DHT22;5840;46.894;15.542;2024-01-15T03:57:00;-4.60;99.90
11569;DHT22;5840;46.894;15.542;2024-01-15T03:59:26;-4.50;99.90
11569;DHT22;5840;46.894;15.542;2024-01-15T04:01:53;-4.50;99.90
11569;DHT22;5840;46.894;15.542;2024-01-15T04:04:19;-4.50;99.90
11569;DHT22;5840;46.894;15.542;2024-01-15T04:06:45;-4.50;99.90
11569;DHT22;5840;46.894;15.542;2024-01-15T04:09:13;-4.50;99.90
11569;DHT22;5840;46.894;15.542;2024-01-15T04:19:07;-4.40;99.90
11569;DHT22;5840;46.894;15.542;2024-01-15T04:21:34;-4.50;99.90
11569;DHT22;5840;46.894;15.542;2024-01-15T04:24:00;-4.50;99.90
11569;DHT22;5840;46.894;15.542;2024-01-15T04:26:26;-4.50;99.90
11569;DHT22;5840;46.894;15.542;2024-01-15T04:28:52;-4.50;99.90
11569;DHT22;5840;46.894;15.542;2024-01-15T04:31:22;-4.50;99.90
11569;DHT22;5840;46.894;15.542;2024-01-15T04:33:49;-4.50;99.90
11569;DHT22;5840;46.894;15.542;2024-01-15T04:36:16;-4.50;99.90
11569;DHT22;5840;46.894;15.542;2024-01-15T04:43:45;-4.50;99.90
11569;DHT22;5840;46.894;15.542;2024-01-15T04:46:11;-4.50;99.90
11569;DHT22;5840;46.894;15.542;2024-01-15T04:48:37;-4.50;99.90
11569;DHT22;5840;46.894;15.542;2024-01-15T04:51:04;-4.50;99.90
11569;DHT22;5840;46.894;15.542;2024-01-15T04:53:31;-4.50;99.90
11569;DHT22;5840;46.894;15.542;2024-01-15T04:55:57;-4.50;99.90
11569;DHT22;5840;46.894;15.542;2024-01-15T04:58:23;-4.50;99.90
11569;DHT22;5840;46.894;15.542;2024-01-15T05:00:53;-4.50;99.90
11569;DHT22;5840;46.894;15.542;2024-01-15T05:10:48;-4.60;99.90
11569;DHT22;5840;46.894;15.542;2024-01-15T05:13:14;-4.60;99.90
11569;DHT22;5840;46.894;15.542;2024-01-15T05:15:40;-4.60;99.90
11569;DHT22;5840;46.894;15.542;2024-01-15T05:18:07;-4.60;99.90
11569;DHT22;5840;46.894;15.542;2024-01-15T05:20:33;-4.60;99.90
11569;DHT22;5840;46.894;15.542;2024-01-15T05:22:59;-4.60;99.90
11569;DHT22;5840;46.894;15.542;2024-01-15T05:25:25;-4.60;99.90
11569;DHT22;5840;46.894;15.542;2024-01-15T05:27:52;-4.60;99.90
11569;DHT22;5840;46.894;15.542;2024-01-15T05:37:48;-4.60;99.90
11569;DHT22;5840;46.894;15.542;2024-01-15T05:40:14;-4.50;99.90
11569;DHT22;5840;46.894;15.542;2024-01-15T05:42:41;-4.50;99.90
11569;DHT22;5840;46.894;15.542;2024-01-15T05:45:08;-4.40;99.90
11569;DHT22;5840;46.894;15.542;2024-01-15T05:47:34;-4.50;99.90
11569;DHT22;5840;46.894;15.542;2024-01-15T05:50:01;-4.50;99.90
11569;DHT22;5840;46.894;15.542;2024-01-15T05:52:27;-4.50;99.90
11569;DHT22;5840;46.894;15.542;2024-01-15T05:54:54;-4.50;99.90
11569;DHT22;5840;46.894;15.542;2024-01-15T06:04:36;-4.50;99.90
11569;DHT22;5840;46.894;15.542;2024-01-15T06:07:03;-4.50;99.90
11569;DHT22;5840;46.894;15.542;2024-01-15T06:09:29;-4.50;99.90
11569;DHT22;5840;46.894;15.542;2024-01-15T06:11:57;-4.50;99.90
11569;DHT22;5840;46.894;15.542;2024-01-15T06:14:23;-4.60;99.90
11569;DHT22;5840;46.894;15.542;2024-01-15T06:16:49;-4.60;99.90
11569;DHT22;5840;46.894;15.542;2024-01-15T06:19:15;-4.60;99.90
11569;DHT22;5840;46.894;15.542;2024-01-15T06:21:42;-4.70;99.90
11569;DHT22;5840;46.894;15.542;2024-01-15T06:29:12;-4.70;99.90
11569;DHT22;5840;46.894;15.542;2024-01-15T06:31:38;-4.70;99.90
11569;DHT22;5840;46.894;15.542;2024-01-15T06:34:04;-4.70;99.90
11569;DHT22;5840;46.894;15.542;2024-01-15T06:36:31;-4.70;99.90
11569;DHT22;5840;46.894;15.542;2024-01-15T06:38:57;-4.80;99.90
11569;DHT22;5840;46.894;15.542;2024-01-15T06:41:23;-4.70;99.90
11569;DHT22;5840;46.894;15.542;2024-01-15T06:43:51;-4.70;99.90
11569;DHT22;5840;46.894;15.542;2024-01-15T06:46:20;-4.80;99.90
11569;DHT22;5840;46.894;15.542;2024-01-15T06:56:15;-4.80;99.90
11569;DHT22;5840;46.894;15.542;2024-01-15T06:58:41;-4.80;99.90
11569;DHT22;5840;46.894;15.542;2024-01-15T07:01:07;-4.80;99.90
11569;DHT22;5840;46.894;15.542;2024-01-15T07:03:34;-4.80;99.90
11569;DHT22;5840;46.894;15.542;2024-01-15T07:06:00;-4.80;99.90
11569;DHT22;5840;46.894;15.542;2024-01-15T07:08:26;-4.70;99.90
11569;DHT22;5840;46.894;15.542;2024-01-15T07:10:53;-4.70;99.90
11569;DHT22;5840;46.894;15.542;2024-01-15T07:13:19;-4.70;99.90
11569;DHT22;5840;46.894;15.542;2024-01-15T07:20:49;-4.70;99.90
11569;DHT22;5840;46.894;15.542;2024-01-15T07:23:16;-4.70;99.90
11569;DHT22;5840;46.894;15.542;2024-01-15T07:25:42;-4.60;99.90
11569;DHT22;5840;46.894;15.542;2024-01-15T07:28:09;-4.60;99.90
11569;DHT22;5840;46.894;15.542;2024-01-15T07:30:35;-4.50;99.90
11569;DHT22;5840;46.894;15.542;2024-01-15T07:33:04;-4.30;99.90
11569;DHT22;5840;46.894;15.542;2024-01-15T07:35:31;-4.00;99.90
11569;DHT22;5840;46.894;15.542;2024-01-15T07:37:58;-3.70;99.90
11569;DHT22;5840;46.894;15.542;2024-01-15T07:47:48;-2.90;99.90
11569;DHT22;5840;46.894;15.542;2024-01-15T07:50:15;-2.40;99.90
11569;DHT22;5840;46.894;15.542;2024-01-15T07:52:41;-2.10;99.90
11569;DHT22;5840;46.894;15.542;2024-01-15T07:55:07;-1.80;99.90
11569;DHT22;5840;46.894;15.542;2024-01-15T07:57:34;-1.50;99.90
11569;DHT22;5840;46.894;15.542;2024-01-15T08:00:01;-1.20;99.90
11569;DHT22;5840;46.894;15.542;2024-01-15T08:02:29;-0.90;99.90
11569;DHT22;5840;46.894;15.542;2024-01-15T08:04:56;-0.60;99.90
11569;DHT22;5840;46.894;15.542;2024-01-15T08:12:27;-0.10;99.90
11569;DHT22;5840;46.894;15.542;2024-01-15T08:14:54;0.30;99.90
11569;DHT22;5840;46.894;15.542;2024-01-15T08:17:20;0.60;99.90
11569;DHT22;5840;46.894;15.542;2024-01-15T08:19:46;1.00;99.90
11569;DHT22;5840;46.894;15.542;2024-01-15T08:22:12;1.40;99.90
11569;DHT22;5840;46.894;15.542;2024-01-15T08:24:38;1.70;99.90
11569;DHT22;5840;46.894;15.542;2024-01-15T08:27:05;1.90;99.90
11569;DHT22;5840;46.894;15.542;2024-01-15T08:29:32;1.90;99.90
11569;DHT22;5840;46.894;15.542;2024-01-15T08:39:24;2.30;99.90
11569;DHT22;5840;46.894;15.542;2024-01-15T08:41:50;2.70;99.90
11569;DHT22;5840;46.894;15.542;2024-01-15T08:44:16;2.90;99.90
11569;DHT22;5840;46.894;15.542;2024-01-15T08:46:43;3.20;99.90
11569;DHT22;5840;46.894;15.542;2024-01-15T08:49:09;3.50;99.90
11569;DHT22;5840;46.894;15.542;2024-01-15T08:51:36;3.70;99.90
11569;DHT22;5840;46.894;15.542;2024-01-15T08:54:03;4.10;99.90
11569;DHT22;5840;46.894;15.542;2024-01-15T08:56:30;4.10;99.90
11569;DHT22;5840;46.894;15.542;2024-01-15T09:04:00;4.20;99.90
11569;DHT22;5840;46.894;15.542;2024-01-15T09:06:26;4.50;99.90
11569;DHT22;5840;46.894;15.542;2024-01-15T09:08:52;4.80;99.90
11569;DHT22;5840;46.894;15.542;2024-01-15T09:11:18;4.90;99.90
11569;DHT22;5840;46.894;15.542;2024-01-15T09:13:45;5.10;99.90
11569;DHT22;5840;46.894;15.542;2024-01-15T09:16:11;5.30;99.90
11569;DHT22;5840;46.894;15.542;2024-01-15T09:18:37;5.40;99.90
11569;DHT22;5840;46.894;15.542;2024-01-15T09:21:04;5.50;99.90
11569;DHT22;5840;46.894;15.542;2024-01-15T09:31:00;6.30;99.90
11569;DHT22;5840;46.894;15.542;2024-01-15T09:33:26;6.90;99.90
11569;DHT22;5840;46.894;15.542;2024-01-15T09:35:52;7.00;99.90
11569;DHT22;5840;46.894;15.542;2024-01-15T09:38:19;7.10;99.90
11569;DHT22;5840;46.894;15.542;2024-01-15T09:40:46;7.20;99.90
11569;DHT22;5840;46.894;15.542;2024-01-15T09:43:12;7.40;99.90
11569;DHT22;5840;46.894;15.542;2024-01-15T09:45:40;7.30;99.90
11569;DHT22;5840;46.894;15.542;2024-01-15T09:48:08;7.40;99.90
11569;DHT22;5840;46.894;15.542;2024-01-15T09:55:37;7.30;99.90
11569;DHT22;5840;46.894;15.542;2024-01-15T09:58:04;7.80;99.90
11569;DHT22;5840;46.894;15.542;2024-01-15T10:00:30;8.10;99.90
11569;DHT22;5840;46.894;15.542;2024-01-15T10:02:57;8.50;99.90
11569;DHT22;5840;46.894;15.542;2024-01-15T10:05:23;8.60;99.90
11569;DHT22;5840;46.894;15.542;2024-01-15T10:07:50;8.80;99.80
11569;DHT22;5840;46.894;15.542;2024-01-15T10:10:17;8.80;99.40
11569;DHT22;5840;46.894;15.542;2024-01-15T10:12:44;8.90;99.80
11569;DHT22;5840;46.894;15.542;2024-01-15T10:22:42;8.70;97.60
11569;DHT22;5840;46.894;15.542;2024-01-15T10:25:10;8.20;97.80
11569;DHT22;5840;46.894;15.542;2024-01-15T10:27:36;7.90;98.50
11569;DHT22;5840;46.894;15.542;2024-01-15T10:30:03;7.70;99.10
11569;DHT22;5840;46.894;15.542;2024-01-15T10:32:31;7.50;98.40
11569;DHT22;5840;46.894;15.542;2024-01-15T10:34:58;7.50;98.90
11569;DHT22;5840;46.894;15.542;2024-01-15T10:37:24;7.50;97.80
11569;DHT22;5840;46.894;15.542;2024-01-15T10:39:52;7.60;98.60
11569;DHT22;5840;46.894;15.542;2024-01-15T10:47:17;7.70;98.50
11569;DHT22;5840;46.894;15.542;2024-01-15T10:49:45;8.20;96.50
11569;DHT22;5840;46.894;15.542;2024-01-15T10:52:11;8.40;96.90
11569;DHT22;5840;46.894;15.542;2024-01-15T10:54:39;8.80;96.00
11569;DHT22;5840;46.894;15.542;2024-01-15T10:57:06;9.10;95.50
11569;DHT22;5840;46.894;15.542;2024-01-15T10:59:32;9.30;94.30
11569;DHT22;5840;46.894;15.542;2024-01-15T11:01:59;9.40;91.60
11569;DHT22;5840;46.894;15.542;2024-01-15T11:04:27;9.40;89.80
11569;DHT22;5840;46.894;15.542;2024-01-15T11:14:34;9.60;89.20
11569;DHT22;5840;46.894;15.542;2024-01-15T11:17:01;9.20;90.10
11569;DHT22;5840;46.894;15.542;2024-01-15T11:19:36;9.10;90.70
11569;DHT22;5840;46.894;15.542;2024-01-15T11:22:02;8.80;90.70
11569;DHT22;5840;46.894;15.542;2024-01-15T11:24:34;8.60;90.90
11569;DHT22;5840;46.894;15.542;2024-01-15T11:27:01;8.50;91.30
11569;DHT22;5840;46.894;15.542;2024-01-15T11:29:32;8.40;92.00
11569;DHT22;5840;46.894;15.542;2024-01-15T11:32:02;8.40;94.00
11569;DHT22;5840;46.894;15.542;2024-01-15T11:39:53;8.50;93.00
11569;DHT22;5840;46.894;15.542;2024-01-15T11:42:20;8.60;92.90
11569;DHT22;5840;46.894;15.542;2024-01-15T11:44:46;8.60;93.20
11569;DHT22;5840;46.894;15.542;2024-01-15T11:47:13;8.50;94.20
11569;DHT22;5840;46.894;15.542;2024-01-15T11:49:59;8.30;93.40
11569;DHT22;5840;46.894;15.542;2024-01-15T11:52:26;8.20;93.20
11569;DHT22;5840;46.894;15.542;2024-01-15T11:55:01;8.20;94.30
11569;DHT22;5840;46.894;15.542;2024-01-15T11:57:37;8.10;93.80
11569;DHT22;5840;46.894;15.542;2024-01-15T12:05:24;8.10;93.50
11569;DHT22;5840;46.894;15.542;2024-01-15T12:07:50;7.80;93.50
11569;DHT22;5840;46.894;15.542;2024-01-15T12:10:17;7.70;94.20
11569;DHT22;5840;46.894;15.542;2024-01-15T12:12:56;7.70;95.10
11569;DHT22;5840;46.894;15.542;2024-01-15T12:15:24;7.50;94.90
11569;DHT22;5840;46.894;15.542;2024-01-15T12:17:50;7.40;95.10
11569;DHT22;5840;46.894;15.542;2024-01-15T12:20:17;7.30;94.50
11569;DHT22;5840;46.894;15.542;2024-01-15T12:25:23;7.10;94.90
11569;DHT22;5840;46.894;15.542;2024-01-15T12:27:50;6.70;94.70
11569;DHT22;5840;46.894;15.542;2024-01-15T12:30:17;6.50;95.40
11569;DHT22;5840;46.894;15.542;2024-01-15T12:32:44;6.40;95.20
11569;DHT22;5840;46.894;15.542;2024-01-15T12:35:11;6.40;96.00
11569;DHT22;5840;46.894;15.542;2024-01-15T12:37:39;6.40;95.40
11569;DHT22;5840;46.894;15.542;2024-01-15T12:40:07;6.40;95.70
11569;DHT22;5840;46.894;15.542;2024-01-15T12:42:35;6.30;95.70
11569;DHT22;5840;46.894;15.542;2024-01-15T12:50:07;6.30;96.20
11569;DHT22;5840;46.894;15.542;2024-01-15T12:52:33;6.50;95.00
11569;DHT22;5840;46.894;15.542;2024-01-15T12:55:00;6.50;94.60
11569;DHT22;5840;46.894;15.542;2024-01-15T12:57:26;6.50;94.80
11569;DHT22;5840;46.894;15.542;2024-01-15T12:59:54;6.60;95.10
11569;DHT22;5840;46.894;15.542;2024-01-15T13:02:21;6.60;95.00
11569;DHT22;5840;46.894;15.542;2024-01-15T13:04:47;6.60;94.70
11569;DHT22;5840;46.894;15.542;2024-01-15T13:07:14;6.70;94.90
11569;DHT22;5840;46.894;15.542;2024-01-15T13:14:44;6.80;94.40
11569;DHT22;5840;46.894;15.542;2024-01-15T13:17:10;6.30;94.90
11569;DHT22;5840;46.894;15.542;2024-01-15T13:19:36;6.00;95.70
11569;DHT22;5840;46.894;15.542;2024-01-15T13:22:04;5.80;95.70
11569;DHT22;5840;46.894;15.542;2024-01-15T13:24:32;5.50;96.00
11569;DHT22;5840;46.894;15.542;2024-01-15T13:26:58;5.30;96.40
11569;DHT22;5840;46.894;15.542;2024-01-15T13:29:25;5.10;97.00
11569;DHT22;5840;46.894;15.542;2024-01-15T13:31:53;5.00;97.90
11569;DHT22;5840;46.894;15.542;2024-01-15T13:39:21;4.90;97.90
11569;DHT22;5840;46.894;15.542;2024-01-15T13:41:48;4.70;98.40
11569;DHT22;5840;46.894;15.542;2024-01-15T13:44:15;4.70;98.80
11569;DHT22;5840;46.894;15.542;2024-01-15T13:46:41;4.60;98.50
11569;DHT22;5840;46.894;15.542;2024-01-15T13:49:07;4.50;98.60
11569;DHT22;5840;46.894;15.542;2024-01-15T13:51:35;4.60;98.90
11569;DHT22;5840;46.894;15.542;2024-01-15T13:54:02;4.50;98.60
11569;DHT22;5840;46.894;15.542;2024-01-15T13:56:30;4.40;98.90
11569;DHT22;5840;46.894;15.542;2024-01-15T14:04:01;4.20;99.50
11569;DHT22;5840;46.894;15.542;2024-01-15T14:06:27;4.10;99.90
11569;DHT22;5840;46.894;15.542;2024-01-15T14:08:53;4.00;99.90
11569;DHT22;5840;46.894;15.542;2024-01-15T14:11:19;4.00;99.90
11569;DHT22;5840;46.894;15.542;2024-01-15T14:13:46;3.90;99.90
11569;DHT22;5840;46.894;15.542;2024-01-15T14:16:13;3.80;99.90
11569;DHT22;5840;46.894;15.542;2024-01-15T14:18:39;3.80;99.90
11569;DHT22;5840;46.894;15.542;2024-01-15T14:21:06;3.80;99.90
11569;DHT22;5840;46.894;15.542;2024-01-15T14:30:56;3.80;99.90
11569;DHT22;5840;46.894;15.542;2024-01-15T14:33:25;3.90;99.90
11569;DHT22;5840;46.894;15.542;2024-01-15T14:35:52;3.90;99.90
11569;DHT22;5840;46.894;15.542;2024-01-15T14:38:18;3.80;99.90
11569;DHT22;5840;46.894;15.542;2024-01-15T14:40:44;3.80;99.90
11569;DHT22;5840;46.894;15.542;2024-01-15T14:43:10;3.80;99.90
11569;DHT22;5840;46.894;15.542;2024-01-15T14:45:37;3.70;99.90
11569;DHT22;5840;46.894;15.542;2024-01-15T14:48:04;3.70;99.90
11569;DHT22;5840;46.894;15.542;2024-01-15T14:55:34;3.70;99.90
11569;DHT22;5840;46.894;15.542;2024-01-15T14:58:00;3.70;99.90
11569;DHT22;5840;46.894;15.542;2024-01-15T15:00:26;3.60;99.90
11569;DHT22;5840;46.894;15.542;2024-01-15T15:02:52;3.50;99.90
11569;DHT22;5840;46.894;15.542;2024-01-15T15:05:18;3.50;99.90
11569;DHT22;5840;46.894;15.542;2024-01-15T15:07:45;3.50;99.90
11569;DHT22;5840;46.894;15.542;2024-01-15T15:10:12;3.40;99.90
11569;DHT22;5840;46.894;15.542;2024-01-15T15:12:38;3.40;99.90
11569;DHT22;5840;46.894;15.542;2024-01-15T15:22:33;3.30;99.90
11569;DHT22;5840;46.894;15.542;2024-01-15T15:25:00;3.30;99.90
11569;DHT22;5840;46.894;15.542;2024-01-15T15:27:26;3.30;99.90
11569;DHT22;5840;46.894;15.542;2024-01-15T15:29:53;3.30;99.90
11569;DHT22;5840;46.894;15.542;2024-01-15T15:32:19;3.30;99.90
11569;DHT22;5840;46.894;15.542;2024-01-15T15:34:45;3.30;99.90
11569;DHT22;5840;46.894;15.542;2024-01-15T15:37:12;3.30;99.90
11569;DHT22;5840;46.894;15.542;2024-01-15T15:39:41;3.20;99.90
11569;DHT22;5840;46.894;15.542;2024-01-15T15:49:31;3.10;99.90
11569;DHT22;5840;46.894;15.542;2024-01-15T15:51:57;3.10;99.90
11569;DHT22;5840;46.894;15.542;2024-01-15T15:54:23;3.00;99.90
11569;DHT22;5840;46.894;15.542;2024-01-15T15:56:50;3.00;99.90
11569;DHT22;5840;46.894;15.542;2024-01-15T15:59:17;3.00;99.90
11569;DHT22;5840;46.894;15.542;2024-01-15T16:01:44;2.90;99.90
11569;DHT22;5840;46.894;15.542;2024-01-15T16:04:11;2.80;99.90
11569;DHT22;5840;46.894;15.542;2024-01-15T16:06:38;2.80;99.90
11569;DHT22;5840;46.894;15.542;2024-01-15T16:16:32;2.60;99.90
11569;DHT22;5840;46.894;15.542;2024-01-15T16:18:59;2.60;99.90
11569;DHT22;5840;46.894;15.542;2024-01-15T16:21:25;2.70;99.90
11569;DHT22;5840;46.894;15.542;2024-01-15T16:23:52;2.70;99.90
11569;DHT22;5840;46.894;15.542;2024-01-15T16:26:18;2.70;99.90
11569;DHT22;5840;46.894;15.542;2024-01-15T16:28:45;2.70;99.90
11569;DHT22;5840;46.894;15.542;2024-01-15T16:31:11;2.60;99.90
11569;DHT22;5840;46.894;15.542;2024-01-15T16:33:38;2.60;99.90
11569;DHT22;5840;46.894;15.542;2024-01-15T16:43:28;2.30;99.90
11569;DHT22;5840;46.894;15.542;2024-01-15T16:45:54;2.20;99.90
11569;DHT22;5840;46.894;15.542;2024-01-15T16:48:21;2.20;99.90
11569;DHT22;5840;46.894;15.542;2024-01-15T16:50:47;2.10;99.90
11569;DHT22;5840;46.894;15.542;2024-01-15T16:53:14;2.00;99.90
11569;DHT22;5840;46.894;15.542;2024-01-15T16:55:40;2.00;99.90
11569;DHT22;5840;46.894;15.542;2024-01-15T16:58:07;2.00;99.90
11569;DHT22;5840;46.894;15.542;2024-01-15T17:00:34;2.00;99.90
11569;DHT22;5840;46.894;15.542;2024-01-15T17:08:03;2.00;99.90
11569;DHT22;5840;46.894;15.542;2024-01-15T17:10:29;1.80;99.90
11569;DHT22;5840;46.894;15.542;2024-01-15T17:12:56;1.70;99.90
11569;DHT22;5840;46.894;15.542;2024-01-15T17:15:23;1.70;99.90
11569;DHT22;5840;46.894;15.542;2024-01-15T17:17:49;1.60;99.90
11569;DHT22;5840;46.894;15.542;2024-01-15T17:20:16;1.50;99.90
11569;DHT22;5840;46.894;15.542;2024-01-15T17:22:42;1.40;99.90
11569;DHT22;5840;46.894;15.542;2024-01-15T17:25:09;1.40;99.90
11569;DHT22;5840;46.894;15.542;2024-01-15T17:32:38;1.20;99.90
11569;DHT22;5840;46.894;15.542;2024-01-15T17:35:05;1.30;99.90
11569;DHT22;5840;46.894;15.542;2024-01-15T17:37:31;1.20;99.90
11569;DHT22;5840;46.894;15.542;2024-01-15T17:39:58;1.20;99.90
11569;DHT22;5840;46.894;15.542;2024-01-15T17:42:24;1.20;99.90
11569;DHT22;5840;46.894;15.542;2024-01-15T17:44:50;1.10;99.90
11569;DHT22;5840;46.894;15.542;2024-01-15T17:47:17;1.10;99.90
11569;DHT22;5840;46.894;15.542;2024-01-15T17:49:44;1.00;99.90
11569;DHT22;5840;46.894;15.542;2024-01-15T17:59:34;1.00;99.90
11569;DHT22;5840;46.894;15.542;2024-01-15T18:02:01;1.00;99.90
11569;DHT22;5840;46.894;15.542;2024-01-15T18:04:28;1.00;99.90
11569;DHT22;5840;46.894;15.542;2024-01-15T18:06:54;1.00;99.90
11569;DHT22;5840;46.894;15.542;2024-01-15T18:09:21;1.00;99.90
11569;DHT22;5840;46.894;15.542;2024-01-15T18:11:47;0.90;99.90
11569;DHT22;5840;46.894;15.542;2024-01-15T18:14:14;0.90;99.90
11569;DHT22;5840;46.894;15.542;2024-01-15T18:16:43;0.90;99.90
11569;DHT22;5840;46.894;15.542;2024-01-15T18:24:17;0.90;99.90
11569;DHT22;5840;46.894;15.542;2024-01-15T18:26:43;0.90;99.90
11569;DHT22;5840;46.894;15.542;2024-01-15T18:29:09;0.80;99.90
11569;DHT22;5840;46.894;15.542;2024-01-15T18:31:35;0.80;99.90
11569;DHT22;5840;46.894;15.542;2024-01-15T18:34:01;0.80;99.90
11569;DHT22;5840;46.894;15.542;2024-01-15T18:36:28;0.80;99.90
11569;DHT22;5840;46.894;15.542;2024-01-15T18:38:54;0.80;99.90
11569;DHT22;5840;46.894;15.542;2024-01-15T18:41:22;0.80;99.90
11569;DHT22;5840;46.894;15.542;2024-01-15T18:51:20;0.80;99.90
11569;DHT22;5840;46.894;15.542;2024-01-15T18:53:46;0.70;99.90
11569;DHT22;5840;46.894;15.542;2024-01-15T18:56:13;0.70;99.90
11569;DHT22;5840;46.894;15.542;2024-01-15T18:58:39;0.70;99.90
11569;DHT22;5840;46.894;15.542;2024-01-15T19:01:09;0.70;99.90
11569;DHT22;5840;46.894;15.542;2024-01-15T19:03:36;0.70;99.90
11569;DHT22;5840;46.894;15.542;2024-01-15T19:06:02;0.70;99.90
11569;DHT22;5840;46.894;15.542;2024-01-15T19:08:29;0.70;99.90
11569;DHT22;5840;46.894;15.542;2024-01-15T19:18:25;0.70;99.90
11569;DHT22;5840;46.894;15.542;2024-01-15T19:20:52;0.70;99.90
11569;DHT22;5840;46.894;15.542;2024-01-15T19:23:18;0.70;99.90
11569;DHT22;5840;46.894;15.542;2024-01-15T19:25:45;0.70;99.90
11569;DHT22;5840;46.894;15.542;2024-01-15T19:28:12;0.80;99.90
11569;DHT22;5840;46.894;15.542;2024-01-15T19:30:39;0.80;99.90
11569;DHT22;5840;46.894;15.542;2024-01-15T19:33:05;0.70;99.90
11569;DHT22;5840;46.894;15.542;2024-01-15T19:35:32;0.70;99.90
11569;DHT22;5840;46.894;15.542;2024-01-15T19:45:23;0.80;99.90
11569;DHT22;5840;46.894;15.542;2024-01-15T19:47:49;0.90;99.90
11569;DHT22;5840;46.894;15.542;2024-01-15T19:50:15;0.90;99.90
11569;DHT22;5840;46.894;15.542;2024-01-15T19:52:42;1.00;99.90
11569;DHT22;5840;46.894;15.542;2024-01-15T19:55:08;1.00;99.90
11569;DHT22;5840;46.894;15.542;2024-01-15T19:57:35;0.90;99.90
11569;DHT22;5840;46.894;15.542;2024-01-15T20:00:01;0.90;99.90
11569;DHT22;5840;46.894;15.542;2024-01-15T20:02:28;0.90;99.90
11569;DHT22;5840;46.894;15.542;2024-01-15T20:09:57;0.80;99.90
11569;DHT22;5840;46.894;15.542;2024-01-15T20:12:23;0.80;99.90
11569;DHT22;5840;46.894;15.542;2024-01-15T20:14:50;0.80;99.90
11569;DHT22;5840;46.894;15.542;2024-01-15T20:17:16;0.80;99.90
11569;DHT22;5840;46.894;15.542;2024-01-15T20:19:42;0.80;99.90
11569;DHT22;5840;46.894;15.542;2024-01-15T20:22:08;0.70;99.90
11569;DHT22;5840;46.894;15.542;2024-01-15T20:24:34;0.70;99.90
11569;DHT22;5840;46.894;15.542;2024-01-15T20:27:01;0.70;99.90
11569;DHT22;5840;46.894;15.542;2024-01-15T20:36:57;0.60;99.90